Terminal Aerodrome Forecast
Issued by NWS

Home | Current Version | Previous Version | Text Only | Print | Product List | Glossary On
Versions: 1 2 3 4 5 6 7 8 9 10 11 12 13 14 15 16 17 18 19 20 21 22 23 24
092
FTUS43 KIND 231720
TAFBMG
TAF
KBMG 231720Z 2318/2418 VRB03KT P6SM BKN040
     FM240100 00000KT P6SM SCT200
     FM240600 00000KT 2SM BR SCT005 BKN250
     FM241200 VRB03KT P6SM SCT120
     FM241500 22004KT P6SM SCT040
     FM241700 22006KT P6SM BKN040=

USA.gov is the U.S. government's official web portal to all federal, state and local government web resources and services.